Time;durP1;ratioP1;P1;durP2;ratioP2;P2;SDS_P1;SDS_P2;PMS_P1;PMS_P2;Temp;Humidity;BMP_temperature;BMP_pressure;BME280_temperature;BME280_humidity;BME280_pressure;Samples;Min_cycle;Max_cycle;Signal;HPM_P1;HPM_P2
2022/09/21 00:00:22;;;;;;;;;;;7.50;99.90;;;;;;5050075;28;19920;-70
2022/09/21 00:02:47;;;;;;;;;;;7.40;99.90;;;;;;5031263;28;20027;-70
2022/09/21 00:05:13;;;;;;;;;;;7.40;99.90;;;;;;5043448;28;19931;-70
2022/09/21 00:07:38;;;;;;;;;;;7.40;99.90;;;;;;5034682;28;19971;-70
2022/09/21 00:10:04;;;;;;;;;;;7.40;99.90;;;;;;5041386;28;19975;-70
2022/09/21 00:12:30;;;;;;;;;;;7.40;99.90;;;;;;5027707;28;20359;-70
2022/09/21 00:14:56;;;;;;;;;;;7.30;99.90;;;;;;5047347;28;19929;-70
2022/09/21 00:17:22;;;;;;;;;;;7.30;99.90;;;;;;5043150;28;19967;-69
2022/09/21 00:19:47;;;;;;;;;;;7.30;99.90;;;;;;5033139;28;19972;-69
2022/09/21 00:22:13;;;;;;;;;;;7.30;99.90;;;;;;5049762;28;19920;-70
2022/09/21 00:24:38;;;;;;;;;;;7.20;99.90;;;;;;5049899;28;19920;-69
2022/09/21 00:27:04;;;;;;;;;;;7.20;99.90;;;;;;5027095;28;19966;-69
2022/09/21 00:29:29;;;;;;;;;;;7.20;99.90;;;;;;5044264;28;19976;-70
2022/09/21 00:31:55;;;;;;;;;;;7.20;99.90;;;;;;5048097;28;19946;-70
2022/09/21 00:34:20;;;;;;;;;;;7.10;99.90;;;;;;5044065;28;20002;-70
2022/09/21 00:36:46;;;;;;;;;;;7.10;99.90;;;;;;5029847;28;19970;-69
2022/09/21 00:39:11;;;;;;;;;;;7.10;99.90;;;;;;5044441;28;20293;-70
2022/09/21 00:41:36;;;;;;;;;;;7.00;99.90;;;;;;5044713;28;19925;-70
2022/09/21 00:44:14;;;;;;;;;;;7.00;99.90;;;;;;5048854;28;20430;-69
2022/09/21 00:46:40;;;;;;;;;;;7.00;99.90;;;;;;5046491;28;20322;-70
2022/09/21 00:49:06;;;;;;;;;;;7.00;99.90;;;;;;5044706;28;19939;-70
2022/09/21 00:51:31;;;;;;;;;;;7.00;99.90;;;;;;5024491;28;19925;-70
2022/09/21 00:54:00;;;;;;;;;;;6.90;99.90;;;;;;5032008;28;20402;-70
2022/09/21 00:56:25;;;;;;;;;;;6.90;99.90;;;;;;5064354;28;20019;-69
2022/09/21 00:58:52;;;;;;;;;;;6.90;99.90;;;;;;5041782;28;20011;-69
2022/09/21 01:01:18;;;;;;;;;;;6.90;99.90;;;;;;5038375;28;19921;-69
2022/09/21 01:03:48;;;;;;;;;;;6.80;99.90;;;;;;5012062;28;19971;-70
2022/09/21 01:06:15;;;;;;;;;;;6.80;99.90;;;;;;5030260;28;19921;-70
2022/09/21 01:08:40;;;;;;;;;;;6.80;99.90;;;;;;5050417;28;19933;-70
2022/09/21 01:11:18;;;;;;;;;;;6.80;99.90;;;;;;5032453;28;19975;-70
2022/09/21 01:14:02;;;;;;;;;;;6.80;99.90;;;;;;5023007;28;19967;-69
2022/09/21 01:16:43;;;;;;;;;;;6.80;99.90;;;;;;5042322;28;20432;-69
2022/09/21 01:19:28;;;;;;;;;;;6.80;99.90;;;;;;5041530;28;19978;-70
2022/09/21 01:22:04;;;;;;;;;;;6.70;99.90;;;;;;5034489;28;19929;-70
2022/09/21 01:24:33;;;;;;;;;;;6.70;99.90;;;;;;5025057;28;19929;-70
2022/09/21 01:27:08;;;;;;;;;;;6.70;99.90;;;;;;5044039;28;19925;-70
2022/09/21 01:29:41;;;;;;;;;;;6.60;99.90;;;;;;5021798;28;20409;-69
2022/09/21 01:32:27;;;;;;;;;;;6.60;99.90;;;;;;5046708;28;19990;-70
2022/09/21 01:34:56;;;;;;;;;;;6.60;99.90;;;;;;5038664;28;19928;-70
2022/09/21 01:37:24;;;;;;;;;;;6.60;99.90;;;;;;5028128;28;19925;-70
2022/09/21 01:39:53;;;;;;;;;;;6.60;99.90;;;;;;5010035;28;19936;-70
2022/09/21 01:42:20;;;;;;;;;;;6.60;99.90;;;;;;5025510;28;20390;-70
2022/09/21 01:44:46;;;;;;;;;;;6.60;99.90;;;;;;5029702;28;19925;-70
2022/09/21 01:47:12;;;;;;;;;;;6.50;99.90;;;;;;5029981;28;20002;-70
2022/09/21 01:49:40;;;;;;;;;;;6.50;99.90;;;;;;5030114;28;20355;-70
2022/09/21 01:52:12;;;;;;;;;;;6.50;99.90;;;;;;5040225;28;19927;-70
2022/09/21 01:54:44;;;;;;;;;;;6.40;99.90;;;;;;5047405;28;19924;-70
2022/09/21 01:57:13;;;;;;;;;;;6.40;99.90;;;;;;5052915;28;19939;-69
2022/09/21 01:59:48;;;;;;;;;;;6.40;99.90;;;;;;5065212;28;20010;-70
2022/09/21 02:02:19;;;;;;;;;;;6.40;99.90;;;;;;5047687;28;20456;-69
2022/09/21 02:04:45;;;;;;;;;;;6.30;99.90;;;;;;5069928;28;19999;-69
2022/09/21 02:07:10;;;;;;;;;;;6.30;99.90;;;;;;5057534;28;20067;-69
2022/09/21 02:09:36;;;;;;;;;;;6.30;99.90;;;;;;5060766;28;19936;-70
2022/09/21 02:12:02;;;;;;;;;;;6.30;99.90;;;;;;5052475;28;20017;-69
2022/09/21 02:14:28;;;;;;;;;;;6.30;99.90;;;;;;5069792;28;20333;-70
2022/09/21 02:17:01;;;;;;;;;;;6.30;99.90;;;;;;5067708;28;20344;-69
2022/09/21 02:19:39;;;;;;;;;;;6.20;99.90;;;;;;5052497;28;19982;-69
2022/09/21 02:22:17;;;;;;;;;;;6.30;99.90;;;;;;5067740;28;19932;-69
2022/09/21 02:24:53;;;;;;;;;;;6.20;99.90;;;;;;5069672;28;19929;-69
2022/09/21 02:27:30;;;;;;;;;;;6.20;99.90;;;;;;5061562;28;19925;-69
2022/09/21 02:29:56;;;;;;;;;;;6.20;99.90;;;;;;5061626;28;19974;-70
2022/09/21 02:32:24;;;;;;;;;;;6.20;99.90;;;;;;5048690;28;19951;-69
2022/09/21 02:35:10;;;;;;;;;;;6.20;99.90;;;;;;5054697;28;19924;-70
2022/09/21 02:37:38;;;;;;;;;;;6.20;99.90;;;;;;5049683;28;19924;-69
2022/09/21 02:40:10;;;;;;;;;;;6.20;99.90;;;;;;5055512;28;19928;-69
2022/09/21 02:42:38;;;;;;;;;;;6.10;99.90;;;;;;5052969;28;20259;-69
2022/09/21 02:45:17;;;;;;;;;;;6.10;99.90;;;;;;5050920;28;19921;-69
2022/09/21 02:47:51;;;;;;;;;;;6.10;99.90;;;;;;5052807;28;19929;-69
2022/09/21 02:50:25;;;;;;;;;;;6.10;99.90;;;;;;5065696;28;19925;-69
2022/09/21 02:52:51;;;;;;;;;;;6.10;99.90;;;;;;5046719;28;19931;-69
2022/09/21 02:55:17;;;;;;;;;;;6.00;99.90;;;;;;5052092;28;20369;-69
2022/09/21 02:57:43;;;;;;;;;;;6.00;99.90;;;;;;5051607;28;19929;-69
2022/09/21 03:00:09;;;;;;;;;;;6.00;99.90;;;;;;5059894;28;19928;-69
2022/09/21 03:02:35;;;;;;;;;;;6.00;99.90;;;;;;5068604;28;20328;-69
2022/09/21 03:05:01;;;;;;;;;;;6.00;99.90;;;;;;5070072;28;19921;-69
2022/09/21 03:07:26;;;;;;;;;;;6.00;99.90;;;;;;5067163;28;19932;-69
2022/09/21 03:09:52;;;;;;;;;;;6.00;99.90;;;;;;5052637;28;19971;-69
2022/09/21 03:12:19;;;;;;;;;;;6.00;99.90;;;;;;5047289;28;19925;-69
2022/09/21 03:14:44;;;;;;;;;;;6.00;99.90;;;;;;5024455;28;19928;-69
2022/09/21 03:17:10;;;;;;;;;;;5.90;99.90;;;;;;5050930;28;20262;-70
2022/09/21 03:19:35;;;;;;;;;;;5.90;99.90;;;;;;5057425;28;19920;-69
2022/09/21 03:22:02;;;;;;;;;;;5.90;99.90;;;;;;5052084;28;20354;-70
2022/09/21 03:24:45;;;;;;;;;;;5.90;99.90;;;;;;5058107;28;20011;-69
2022/09/21 03:27:18;;;;;;;;;;;5.80;99.90;;;;;;5059102;28;20319;-69
2022/09/21 03:29:44;;;;;;;;;;;5.80;99.90;;;;;;5063063;28;19925;-69
2022/09/21 03:32:09;;;;;;;;;;;5.70;99.90;;;;;;5066023;28;19928;-69
2022/09/21 03:34:35;;;;;;;;;;;5.80;99.90;;;;;;5060262;28;19924;-69
2022/09/21 03:37:01;;;;;;;;;;;5.70;99.90;;;;;;5066316;28;20022;-69
2022/09/21 03:39:27;;;;;;;;;;;5.70;99.90;;;;;;5059366;28;19955;-70
2022/09/21 03:41:55;;;;;;;;;;;5.70;99.90;;;;;;5069209;28;19975;-69
2022/09/21 03:44:21;;;;;;;;;;;5.70;99.90;;;;;;5059781;28;19966;-69
2022/09/21 03:46:46;;;;;;;;;;;5.70;99.90;;;;;;5070260;28;19928;-69
2022/09/21 03:49:12;;;;;;;;;;;5.70;99.90;;;;;;5063378;28;20121;-69
2022/09/21 03:51:38;;;;;;;;;;;5.70;99.90;;;;;;5033896;28;19920;-70
2022/09/21 03:54:04;;;;;;;;;;;5.60;99.90;;;;;;5051722;28;19925;-70
2022/09/21 03:56:29;;;;;;;;;;;5.60;99.90;;;;;;5040922;28;20368;-69
2022/09/21 03:58:55;;;;;;;;;;;5.50;99.90;;;;;;5014774;28;19925;-69
2022/09/21 04:01:21;;;;;;;;;;;5.60;99.90;;;;;;5057920;28;19953;-69
2022/09/21 04:03:46;;;;;;;;;;;5.50;99.90;;;;;;5067292;28;19928;-69
2022/09/21 04:06:12;;;;;;;;;;;5.50;99.90;;;;;;5068239;28;20278;-70
2022/09/21 04:08:38;;;;;;;;;;;5.50;99.90;;;;;;5061348;28;20455;-69
2022/09/21 04:11:14;;;;;;;;;;;5.50;99.90;;;;;;5039013;28;20507;-69
2022/09/21 04:13:41;;;;;;;;;;;5.50;99.90;;;;;;5048645;28;19929;-69
2022/09/21 04:16:08;;;;;;;;;;;5.50;99.90;;;;;;5030449;28;20019;-69
2022/09/21 04:18:34;;;;;;;;;;;5.40;99.90;;;;;;5050453;28;19921;-69
2022/09/21 04:20:59;;;;;;;;;;;5.40;99.90;;;;;;5048259;28;20420;-69
2022/09/21 04:23:25;;;;;;;;;;;5.40;99.90;;;;;;5065901;28;19925;-69
2022/09/21 04:25:52;;;;;;;;;;;5.40;99.90;;;;;;5066328;28;19987;-69
2022/09/21 04:28:18;;;;;;;;;;;5.40;99.90;;;;;;5066396;28;19925;-69
2022/09/21 04:30:43;;;;;;;;;;;5.40;99.90;;;;;;5064439;28;20302;-69
2022/09/21 04:33:09;;;;;;;;;;;5.40;99.90;;;;;;5050205;28;20059;-69
2022/09/21 04:35:34;;;;;;;;;;;5.40;99.90;;;;;;5055248;28;19921;-69
2022/09/21 04:38:00;;;;;;;;;;;5.30;99.90;;;;;;5047877;28;20563;-69
2022/09/21 04:40:26;;;;;;;;;;;5.30;99.90;;;;;;5041452;28;20374;-69
2022/09/21 04:42:52;;;;;;;;;;;5.30;99.90;;;;;;5050333;28;19960;-71
2022/09/21 04:45:18;;;;;;;;;;;5.30;99.90;;;;;;5050222;28;20006;-69
2022/09/21 04:47:44;;;;;;;;;;;5.30;99.90;;;;;;5050108;28;19924;-69
2022/09/21 04:50:10;;;;;;;;;;;5.30;99.90;;;;;;5050180;28;19925;-70
2022/09/21 04:52:35;;;;;;;;;;;5.20;99.90;;;;;;5049837;28;19924;-69
2022/09/21 04:55:01;;;;;;;;;;;5.20;99.90;;;;;;5065972;28;20361;-69
2022/09/21 04:57:26;;;;;;;;;;;5.20;99.90;;;;;;5053412;28;19964;-69
2022/09/21 04:59:52;;;;;;;;;;;5.20;99.90;;;;;;5052418;28;20017;-69
2022/09/21 05:02:17;;;;;;;;;;;5.10;99.90;;;;;;5035747;28;20378;-69
2022/09/21 05:04:43;;;;;;;;;;;5.10;99.90;;;;;;5052707;28;19920;-69
2022/09/21 05:07:08;;;;;;;;;;;5.10;99.90;;;;;;5053293;28;21333;-69
2022/09/21 05:12:18;;;;;;;;;;;5.10;99.90;;;;;;5052366;28;20015;-69
2022/09/21 05:14:43;;;;;;;;;;;5.10;99.90;;;;;;5050530;28;19999;-69
2022/09/21 05:17:10;;;;;;;;;;;5.00;99.90;;;;;;5050095;28;19924;-69
2022/09/21 05:19:35;;;;;;;;;;;5.00;99.90;;;;;;5040626;28;20378;-69
2022/09/21 05:22:01;;;;;;;;;;;5.00;99.90;;;;;;5035228;28;19927;-69
2022/09/21 05:24:26;;;;;;;;;;;5.00;99.90;;;;;;5075146;28;20242;-69
2022/09/21 05:26:51;;;;;;;;;;;5.00;99.90;;;;;;5049761;28;20382;-69
2022/09/21 05:29:17;;;;;;;;;;;5.00;99.90;;;;;;5069923;28;19935;-69
2022/09/21 05:32:01;;;;;;;;;;;5.00;99.90;;;;;;5052070;28;19924;-70
2022/09/21 05:34:46;;;;;;;;;;;5.00;99.90;;;;;;5048097;28;19920;-70
2022/09/21 05:37:21;;;;;;;;;;;5.10;99.90;;;;;;5049137;28;20011;-69
2022/09/21 05:39:46;;;;;;;;;;;5.10;99.90;;;;;;5056184;28;19924;-69
2022/09/21 05:42:12;;;;;;;;;;;5.10;99.90;;;;;;5056590;28;19943;-69
2022/09/21 05:44:37;;;;;;;;;;;5.20;99.90;;;;;;5049572;28;20034;-69
2022/09/21 05:47:03;;;;;;;;;;;5.20;99.90;;;;;;5037547;28;19925;-69
2022/09/21 05:49:48;;;;;;;;;;;5.20;99.90;;;;;;5053376;28;19924;-69
2022/09/21 05:52:23;;;;;;;;;;;5.20;99.90;;;;;;5040788;28;19932;-69
2022/09/21 05:55:14;;;;;;;;;;;5.20;99.90;;;;;;5022173;28;19928;-69
2022/09/21 05:58:03;;;;;;;;;;;5.30;99.90;;;;;;5022089;28;19932;-69
2022/09/21 06:00:36;;;;;;;;;;;5.30;99.90;;;;;;5044154;28;20359;-70
2022/09/21 06:03:22;;;;;;;;;;;5.40;99.90;;;;;;5020556;28;20394;-70
2022/09/21 06:05:47;;;;;;;;;;;5.50;99.90;;;;;;5034686;28;20006;-69
2022/09/21 06:08:13;;;;;;;;;;;5.50;99.90;;;;;;5071246;23;20410;-66
2022/09/21 06:10:38;;;;;;;;;;;5.60;99.90;;;;;;5071679;28;19931;-66
2022/09/21 06:13:04;;;;;;;;;;;5.70;99.90;;;;;;5071018;28;19920;-66
2022/09/21 06:15:29;;;;;;;;;;;5.80;99.90;;;;;;5056987;28;19920;-66
2022/09/21 06:17:56;;;;;;;;;;;5.90;99.90;;;;;;5076237;28;19973;-66
2022/09/21 06:20:23;;;;;;;;;;;6.10;99.90;;;;;;5076695;28;19920;-66
2022/09/21 06:22:49;;;;;;;;;;;6.90;99.90;;;;;;5076770;28;20471;-66
2022/09/21 06:25:14;;;;;;;;;;;8.10;99.90;;;;;;5094553;28;19924;-66
2022/09/21 06:27:40;;;;;;;;;;;9.20;99.90;;;;;;5056945;28;19935;-66
2022/09/21 06:30:06;;;;;;;;;;;10.30;99.90;;;;;;5074146;28;19927;-66
2022/09/21 06:32:31;;;;;;;;;;;11.20;99.90;;;;;;5093538;28;19924;-66
2022/09/21 06:34:57;;;;;;;;;;;12.50;99.90;;;;;;5069177;28;19921;-66
2022/09/21 06:37:22;;;;;;;;;;;12.50;99.90;;;;;;5070993;28;19924;-67
2022/09/21 06:39:48;;;;;;;;;;;13.00;99.90;;;;;;5072787;28;20273;-68
2022/09/21 06:42:13;;;;;;;;;;;13.20;99.90;;;;;;5073476;28;20373;-68
2022/09/21 06:44:38;;;;;;;;;;;13.60;99.90;;;;;;5071734;28;19924;-68
2022/09/21 06:47:04;;;;;;;;;;;14.10;99.90;;;;;;5089468;28;20305;-67
2022/09/21 06:49:29;;;;;;;;;;;14.80;99.70;;;;;;5070298;28;20357;-67
2022/09/21 06:51:55;;;;;;;;;;;15.30;98.20;;;;;;5091343;28;19966;-67
2022/09/21 06:54:21;;;;;;;;;;;15.80;97.40;;;;;;5075868;28;19947;-68
2022/09/21 06:56:46;;;;;;;;;;;16.20;96.60;;;;;;5063058;28;20003;-68
2022/09/21 06:59:11;;;;;;;;;;;16.80;95.50;;;;;;5085182;28;19924;-67
2022/09/21 07:01:37;;;;;;;;;;;17.40;94.00;;;;;;5073091;28;19924;-67
2022/09/21 07:04:03;;;;;;;;;;;17.80;93.50;;;;;;5074554;28;20355;-68
2022/09/21 07:06:29;;;;;;;;;;;18.20;92.70;;;;;;5075751;28;20019;-68
2022/09/21 07:08:54;;;;;;;;;;;18.60;91.70;;;;;;5079928;28;19930;-68
2022/09/21 07:11:21;;;;;;;;;;;18.70;91.50;;;;;;5086691;28;20015;-67
2022/09/21 07:13:46;;;;;;;;;;;19.10;90.90;;;;;;5054509;28;19923;-68
2022/09/21 07:16:12;;;;;;;;;;;19.30;90.90;;;;;;5072104;28;19924;-68
2022/09/21 07:18:39;;;;;;;;;;;19.50;90.60;;;;;;5093845;28;20457;-68
2022/09/21 07:21:05;;;;;;;;;;;19.70;90.10;;;;;;5075886;28;20521;-67
2022/09/21 07:23:30;;;;;;;;;;;19.70;90.50;;;;;;5093764;28;19924;-68
2022/09/21 07:25:59;;;;;;;;;;;19.70;90.50;;;;;;5072047;28;20018;-68
2022/09/21 07:28:25;;;;;;;;;;;19.20;91.30;;;;;;5073340;28;19921;-68
2022/09/21 07:30:50;;;;;;;;;;;18.20;93.10;;;;;;5066165;28;20368;-68
2022/09/21 07:33:16;;;;;;;;;;;17.20;94.70;;;;;;5075688;28;19990;-67
2022/09/21 07:35:49;;;;;;;;;;;16.50;96.50;;;;;;5075666;28;19924;-67
2022/09/21 07:38:14;;;;;;;;;;;15.80;98.20;;;;;;5075485;28;20004;-68
2022/09/21 07:40:40;;;;;;;;;;;15.30;99.90;;;;;;5070515;28;19974;-68
2022/09/21 07:43:05;;;;;;;;;;;14.90;99.90;;;;;;5074416;28;19928;-68
2022/09/21 07:45:31;;;;;;;;;;;14.50;99.90;;;;;;5068725;28;20696;-67
2022/09/21 07:48:07;;;;;;;;;;;14.30;99.90;;;;;;5059891;28;20018;-67
2022/09/21 07:50:33;;;;;;;;;;;14.00;99.90;;;;;;5069801;28;19920;-68
2022/09/21 07:53:02;;;;;;;;;;;13.80;99.90;;;;;;5092588;28;19931;-67
2022/09/21 07:55:27;;;;;;;;;;;13.60;99.90;;;;;;5074003;28;20282;-68
2022/09/21 08:00:37;;;;;;;;;;;13.40;99.90;;;;;;5054960;28;19920;-68
2022/09/21 08:03:03;;;;;;;;;;;13.40;99.90;;;;;;5087703;28;20021;-68
2022/09/21 08:05:29;;;;;;;;;;;13.40;99.90;;;;;;5072465;28;19935;-67
2022/09/21 08:07:55;;;;;;;;;;;13.40;99.90;;;;;;5073492;28;19928;-68
2022/09/21 08:10:21;;;;;;;;;;;13.50;99.90;;;;;;5073529;28;19982;-67
2022/09/21 08:12:47;;;;;;;;;;;13.40;99.90;;;;;;5074310;28;19972;-68
2022/09/21 08:15:13;;;;;;;;;;;13.50;99.90;;;;;;5061320;28;20016;-67
2022/09/21 08:17:39;;;;;;;;;;;13.50;99.90;;;;;;5085138;28;19920;-68
2022/09/21 08:20:04;;;;;;;;;;;13.60;99.90;;;;;;5055957;28;19943;-68
2022/09/21 08:22:30;;;;;;;;;;;13.60;99.90;;;;;;5067779;28;20026;-71
2022/09/21 08:24:56;;;;;;;;;;;13.60;99.90;;;;;;5068073;28;19947;-71
2022/09/21 08:27:22;;;;;;;;;;;13.80;99.90;;;;;;5074374;28;19979;-71
2022/09/21 08:29:47;;;;;;;;;;;13.80;99.90;;;;;;5051855;28;20456;-71
2022/09/21 08:32:12;;;;;;;;;;;13.80;99.90;;;;;;5074236;28;19920;-72
2022/09/21 08:34:38;;;;;;;;;;;13.90;99.90;;;;;;5074545;28;19919;-71
2022/09/21 08:37:03;;;;;;;;;;;14.00;99.90;;;;;;5074386;28;19946;-71
2022/09/21 08:39:29;;;;;;;;;;;14.00;99.90;;;;;;5074379;28;19963;-71
2022/09/21 08:42:30;;;;;;;;;;;14.10;99.90;;;;;;5074242;28;19924;-71
2022/09/21 08:44:58;;;;;;;;;;;14.10;99.90;;;;;;5031677;28;19927;-71
2022/09/21 08:47:34;;;;;;;;;;;14.20;99.90;;;;;;5050110;28;19932;-71
2022/09/21 08:50:00;;;;;;;;;;;14.30;99.90;;;;;;5074129;28;19924;-71
2022/09/21 08:52:26;;;;;;;;;;;14.30;99.90;;;;;;5073911;28;19920;-71
2022/09/21 08:55:05;;;;;;;;;;;14.40;99.90;;;;;;5073804;28;19942;-72
2022/09/21 08:57:32;;;;;;;;;;;14.60;99.90;;;;;;5073734;28;19924;-71
2022/09/21 08:59:58;;;;;;;;;;;14.70;99.90;;;;;;5074055;28;20278;-71
2022/09/21 09:02:26;;;;;;;;;;;14.80;99.90;;;;;;5072369;28;19927;-71
2022/09/21 09:04:56;;;;;;;;;;;14.70;99.90;;;;;;5073996;28;20277;-71
2022/09/21 09:07:27;;;;;;;;;;;14.70;99.90;;;;;;5073268;28;20034;-71
2022/09/21 09:09:55;;;;;;;;;;;14.80;99.90;;;;;;5091372;28;19968;-71
2022/09/21 09:12:40;;;;;;;;;;;14.90;99.90;;;;;;5073830;28;20057;-71
2022/09/21 09:15:20;;;;;;;;;;;15.00;99.90;;;;;;5074174;28;19947;-72
2022/09/21 09:17:52;;;;;;;;;;;15.10;99.90;;;;;;5071843;28;19920;-72
2022/09/21 09:20:20;;;;;;;;;;;15.30;99.90;;;;;;5069408;28;20372;-71
2022/09/21 09:22:48;;;;;;;;;;;15.20;99.90;;;;;;5074592;28;19923;-71
2022/09/21 09:25:16;;;;;;;;;;;15.20;99.90;;;;;;5073347;28;20006;-71
2022/09/21 09:27:43;;;;;;;;;;;15.30;99.90;;;;;;5073653;28;20009;-71
2022/09/21 09:30:15;;;;;;;;;;;15.30;99.90;;;;;;5073834;28;20361;-71
2022/09/21 09:32:48;;;;;;;;;;;15.50;99.90;;;;;;5073705;28;20285;-71
2022/09/21 09:35:23;;;;;;;;;;;15.60;99.90;;;;;;5071980;28;19920;-71
2022/09/21 09:37:49;;;;;;;;;;;15.80;99.90;;;;;;5073775;28;20484;-71
2022/09/21 09:40:17;;;;;;;;;;;15.70;98.40;;;;;;5073198;28;19923;-71
2022/09/21 09:42:55;;;;;;;;;;;15.80;99.90;;;;;;5073377;28;19924;-71
2022/09/21 09:45:31;;;;;;;;;;;15.80;99.10;;;;;;5073280;28;19920;-71
2022/09/21 09:48:16;;;;;;;;;;;15.90;99.90;;;;;;5073318;28;20061;-71
2022/09/21 09:50:41;;;;;;;;;;;16.00;99.90;;;;;;5071700;28;19924;-71
2022/09/21 09:53:15;;;;;;;;;;;16.10;99.90;;;;;;5056795;28;19920;-71
2022/09/21 09:55:42;;;;;;;;;;;16.00;98.40;;;;;;5073382;28;19924;-71
2022/09/21 09:58:18;;;;;;;;;;;16.00;98.10;;;;;;5072916;28;19924;-71
2022/09/21 10:00:44;;;;;;;;;;;16.00;98.20;;;;;;5073092;28;20393;-71
2022/09/21 10:03:18;;;;;;;;;;;15.80;97.50;;;;;;5073108;28;19924;-71
2022/09/21 10:05:44;;;;;;;;;;;16.10;99.20;;;;;;5054808;28;19969;-71
2022/09/21 10:08:29;;;;;;;;;;;16.20;99.40;;;;;;5072980;28;19992;-71
2022/09/21 10:10:55;;;;;;;;;;;16.30;99.90;;;;;;5072345;28;19924;-71
2022/09/21 10:13:25;;;;;;;;;;;16.60;98.80;;;;;;5068777;28;19943;-71
2022/09/21 10:15:58;;;;;;;;;;;16.60;96.20;;;;;;5066846;28;19982;-71
2022/09/21 10:18:34;;;;;;;;;;;16.70;97.50;;;;;;5054724;28;19920;-72
2022/09/21 10:21:03;;;;;;;;;;;16.80;98.30;;;;;;5059070;28;19946;-72
2022/09/21 10:23:29;;;;;;;;;;;16.60;96.50;;;;;;5074479;28;20407;-72
2022/09/21 10:25:57;;;;;;;;;;;16.80;97.50;;;;;;5070703;28;19932;-72
2022/09/21 10:28:22;;;;;;;;;;;16.80;96.70;;;;;;5073569;28;19924;-72
2022/09/21 10:30:48;;;;;;;;;;;17.00;96.80;;;;;;5074133;28;19964;-72
2022/09/21 10:33:20;;;;;;;;;;;17.20;97.10;;;;;;5059721;28;19920;-72
2022/09/21 10:35:51;;;;;;;;;;;17.30;97.00;;;;;;5059936;28;19966;-72
2022/09/21 10:38:26;;;;;;;;;;;17.50;96.90;;;;;;5076456;28;19996;-72
2022/09/21 10:40:52;;;;;;;;;;;17.50;96.50;;;;;;5074777;28;19924;-71
2022/09/21 10:43:38;;;;;;;;;;;17.60;95.10;;;;;;5073358;28;19924;-71
2022/09/21 10:46:03;;;;;;;;;;;17.60;96.60;;;;;;5073502;28;19935;-71
2022/09/21 10:48:29;;;;;;;;;;;17.70;94.30;;;;;;5089186;28;20285;-68
2022/09/21 10:50:55;;;;;;;;;;;17.50;92.90;;;;;;5055476;28;20266;-68
2022/09/21 10:53:31;;;;;;;;;;;17.60;96.10;;;;;;5064623;28;19920;-68
2022/09/21 10:55:59;;;;;;;;;;;17.60;92.60;;;;;;5074762;28;20029;-69
2022/09/21 10:58:25;;;;;;;;;;;17.70;95.40;;;;;;5067571;28;20328;-69
2022/09/21 11:00:51;;;;;;;;;;;17.80;96.40;;;;;;5074203;28;19977;-69
2022/09/21 11:03:29;;;;;;;;;;;17.90;96.70;;;;;;5076012;28;19919;-67
2022/09/21 11:06:03;;;;;;;;;;;18.00;95.80;;;;;;5052578;28;19976;-67
2022/09/21 11:08:31;;;;;;;;;;;18.10;94.90;;;;;;5088909;28;19952;-67
2022/09/21 11:10:56;;;;;;;;;;;18.00;92.60;;;;;;5071779;28;19962;-67
2022/09/21 11:13:40;;;;;;;;;;;17.90;94.20;;;;;;5068807;28;20625;-66
2022/09/21 11:16:13;;;;;;;;;;;17.90;95.00;;;;;;5074917;28;20047;-66
2022/09/21 11:18:45;;;;;;;;;;;17.70;95.70;;;;;;5055474;28;19920;-68
2022/09/21 11:21:31;;;;;;;;;;;17.40;95.60;;;;;;5071941;28;19924;-69
2022/09/21 11:24:09;;;;;;;;;;;17.30;96.70;;;;;;5058698;28;19920;-69
2022/09/21 11:26:53;;;;;;;;;;;17.00;97.20;;;;;;5092917;28;19935;-68
2022/09/21 11:29:19;;;;;;;;;;;17.00;95.90;;;;;;5075114;28;19923;-69
2022/09/21 11:32:03;;;;;;;;;;;17.10;96.80;;;;;;5073374;28;19920;-69
2022/09/21 11:34:34;;;;;;;;;;;17.20;94.10;;;;;;5058403;28;20285;-68
2022/09/21 11:37:09;;;;;;;;;;;17.30;95.20;;;;;;5074243;28;19924;-72
2022/09/21 11:39:45;;;;;;;;;;;17.50;97.10;;;;;;5057133;28;19946;-72
2022/09/21 11:42:14;;;;;;;;;;;17.40;93.60;;;;;;5074834;28;20054;-72
2022/09/21 11:44:48;;;;;;;;;;;17.50;96.70;;;;;;5074710;28;19920;-72
2022/09/21 11:47:32;;;;;;;;;;;17.40;92.40;;;;;;5073385;28;20028;-72
2022/09/21 11:50:08;;;;;;;;;;;17.50;94.40;;;;;;5072607;28;19919;-71
2022/09/21 11:52:46;;;;;;;;;;;17.60;95.40;;;;;;5074112;28;19962;-71
2022/09/21 11:55:37;;;;;;;;;;;17.70;96.20;;;;;;5072825;28;19970;-71
2022/09/21 11:58:08;;;;;;;;;;;17.70;95.40;;;;;;5055336;28;19957;-71
2022/09/21 12:00:42;;;;;;;;;;;17.80;93.80;;;;;;5071967;28;20022;-72
2022/09/21 12:03:26;;;;;;;;;;;17.80;96.00;;;;;;5074933;28;19928;-72
2022/09/21 12:06:15;;;;;;;;;;;17.90;95.10;;;;;;5074826;28;19977;-72
2022/09/21 12:08:47;;;;;;;;;;;17.90;95.00;;;;;;5061465;28;19928;-72
2022/09/21 12:11:31;;;;;;;;;;;17.90;90.30;;;;;;5057307;28;19959;-72
2022/09/21 12:14:03;;;;;;;;;;;17.80;91.30;;;;;;5071431;28;20369;-72
2022/09/21 12:16:36;;;;;;;;;;;17.90;88.10;;;;;;5071180;28;20013;-72
2022/09/21 12:19:08;;;;;;;;;;;17.90;92.30;;;;;;5072811;28;19935;-70
2022/09/21 12:21:36;;;;;;;;;;;17.90;94.50;;;;;;5084112;28;19927;-71
2022/09/21 12:24:11;;;;;;;;;;;17.80;94.60;;;;;;5073830;28;20297;-72
2022/09/21 12:26:41;;;;;;;;;;;17.50;93.00;;;;;;5056783;28;19935;-72
2022/09/21 12:29:29;;;;;;;;;;;17.50;94.70;;;;;;5064641;28;19959;-72
2022/09/21 12:31:57;;;;;;;;;;;17.50;90.70;;;;;;5071810;28;19924;-72
2022/09/21 12:34:26;;;;;;;;;;;17.30;90.00;;;;;;5070793;28;20014;-72
2022/09/21 12:37:05;;;;;;;;;;;17.50;92.80;;;;;;5074048;28;19923;-72
2022/09/21 12:39:43;;;;;;;;;;;17.70;91.10;;;;;;5072442;28;20269;-72
2022/09/21 12:42:17;;;;;;;;;;;17.90;94.20;;;;;;5065902;28;19924;-72
2022/09/21 12:44:52;;;;;;;;;;;18.00;94.00;;;;;;5071140;28;19968;-72
2022/09/21 12:47:33;;;;;;;;;;;18.00;89.40;;;;;;5070399;28;19928;-72
2022/09/21 12:50:02;;;;;;;;;;;18.10;90.40;;;;;;5072987;28;19920;-72
2022/09/21 12:52:28;;;;;;;;;;;18.20;93.30;;;;;;5071653;28;19924;-72
2022/09/21 12:55:14;;;;;;;;;;;18.00;88.00;;;;;;5070861;28;20016;-72
2022/09/21 12:57:49;;;;;;;;;;;18.10;91.10;;;;;;5071570;28;19924;-72
2022/09/21 13:00:19;;;;;;;;;;;18.30;92.20;;;;;;5068938;28;19920;-72
2022/09/21 13:02:57;;;;;;;;;;;18.40;90.90;;;;;;5073402;28;20343;-72
2022/09/21 13:05:32;;;;;;;;;;;18.50;90.30;;;;;;5072418;28;19969;-72
2022/09/21 13:08:13;;;;;;;;;;;18.60;91.90;;;;;;5073634;28;19950;-72
2022/09/21 13:10:47;;;;;;;;;;;18.90;93.30;;;;;;5056430;28;19959;-72
2022/09/21 13:13:24;;;;;;;;;;;19.00;92.70;;;;;;5057048;28;19924;-72
2022/09/21 13:15:50;;;;;;;;;;;18.90;88.20;;;;;;5088648;28;20027;-72
2022/09/21 13:18:17;;;;;;;;;;;19.10;91.00;;;;;;5073702;28;20006;-72
2022/09/21 13:20:43;;;;;;;;;;;19.10;90.90;;;;;;5072752;28;19920;-72
2022/09/21 13:23:16;;;;;;;;;;;19.10;91.70;;;;;;5072085;28;19926;-72
2022/09/21 13:25:47;;;;;;;;;;;18.90;92.70;;;;;;5083084;28;19928;-72
2022/09/21 13:28:14;;;;;;;;;;;18.60;93.70;;;;;;5067660;28;19924;-71
2022/09/21 13:30:39;;;;;;;;;;;18.50;92.90;;;;;;5053658;28;20354;-71
2022/09/21 13:33:17;;;;;;;;;;;18.40;93.30;;;;;;5069306;28;20016;-71
2022/09/21 13:35:49;;;;;;;;;;;18.20;92.50;;;;;;5066204;28;19924;-71
2022/09/21 13:38:22;;;;;;;;;;;18.10;94.40;;;;;;5070057;28;20381;-71
2022/09/21 13:40:58;;;;;;;;;;;18.00;93.90;;;;;;5073644;28;20010;-71
2022/09/21 13:43:24;;;;;;;;;;;17.90;94.80;;;;;;5072730;28;19927;-71
2022/09/21 13:45:51;;;;;;;;;;;17.80;95.30;;;;;;5056260;28;19924;-71
2022/09/21 13:48:26;;;;;;;;;;;17.70;95.60;;;;;;5064721;28;19947;-71
2022/09/21 13:50:54;;;;;;;;;;;17.60;94.60;;;;;;5061221;28;20659;-72
2022/09/21 13:53:31;;;;;;;;;;;17.50;95.70;;;;;;5071862;28;19928;-72
2022/09/21 13:56:17;;;;;;;;;;;17.40;95.80;;;;;;5073456;28;20006;-71
2022/09/21 13:58:45;;;;;;;;;;;17.30;96.50;;;;;;5057270;28;20282;-71
2022/09/21 14:01:20;;;;;;;;;;;17.20;95.50;;;;;;5057432;28;19932;-71
2022/09/21 14:03:48;;;;;;;;;;;17.10;96.80;;;;;;5060880;28;19928;-71
2022/09/21 14:06:15;;;;;;;;;;;17.10;96.80;;;;;;5072674;28;19924;-68
2022/09/21 14:08:53;;;;;;;;;;;17.00;96.90;;;;;;5065818;28;19928;-68
2022/09/21 14:11:27;;;;;;;;;;;17.00;97.30;;;;;;5071608;28;19920;-68
2022/09/21 14:14:01;;;;;;;;;;;16.90;97.60;;;;;;5081844;28;19926;-68
2022/09/21 14:16:33;;;;;;;;;;;16.80;97.70;;;;;;5076312;28;20027;-67
2022/09/21 14:18:59;;;;;;;;;;;16.80;96.40;;;;;;5074592;28;19924;-68
2022/09/21 14:21:25;;;;;;;;;;;16.90;92.40;;;;;;5091023;28;19956;-68
2022/09/21 14:24:06;;;;;;;;;;;17.20;90.60;;;;;;5047898;28;19978;-68
2022/09/21 14:26:40;;;;;;;;;;;17.40;93.90;;;;;;5092127;28;19928;-68
2022/09/21 14:29:12;;;;;;;;;;;17.60;87.50;;;;;;5069040;28;20296;-68
2022/09/21 14:31:38;;;;;;;;;;;17.80;93.30;;;;;;5090994;28;20561;-68
2022/09/21 14:34:07;;;;;;;;;;;17.90;89.20;;;;;;5071202;28;19926;-68
2022/09/21 14:36:37;;;;;;;;;;;18.10;92.30;;;;;;5095026;28;19931;-68
2022/09/21 14:39:04;;;;;;;;;;;18.30;93.60;;;;;;5074762;28;19926;-68
2022/09/21 14:41:35;;;;;;;;;;;18.30;90.90;;;;;;5076235;28;20268;-68
2022/09/21 14:44:01;;;;;;;;;;;18.30;91.90;;;;;;5076393;28;20015;-68